createdAt,value
2022-10-31T00:02:08.173Z,10.90
2022-10-31T00:05:18.006Z,11.30
2022-10-31T00:07:53.228Z,11.30
2022-10-31T00:10:37.991Z,11.80
2022-10-31T00:13:44.367Z,11.30
2022-10-31T00:16:32.377Z,11.40
2022-10-31T00:19:13.503Z,11.10
2022-10-31T00:22:12.763Z,11.90
2022-10-31T00:24:48.861Z,11.30
2022-10-31T00:27:28.291Z,11.00
2022-10-31T00:30:09.177Z,11.70
2022-10-31T00:33:01.873Z,11.40
2022-10-31T00:36:01.348Z,10.80
2022-10-31T00:38:36.246Z,11.50
2022-10-31T00:41:26.333Z,11.20
2022-10-31T00:44:22.725Z,11.50
2022-10-31T00:47:02.732Z,11.70
2022-10-31T00:49:40.562Z,10.90
2022-10-31T00:52:33.454Z,10.10
2022-10-31T00:55:14.696Z,11.80
2022-10-31T00:57:57.287Z,11.60
2022-10-31T01:00:40.457Z,11.30
2022-10-31T01:03:19.781Z,10.80
2022-10-31T01:06:06.183Z,11.10
2022-10-31T01:09:00.733Z,12.60
2022-10-31T01:11:41.083Z,12.10
2022-10-31T01:14:13.664Z,11.60
2022-10-31T01:16:54.523Z,11.50
2022-10-31T01:19:39.415Z,11.70
2022-10-31T01:22:40.406Z,12.40
2022-10-31T01:28:32.642Z,11.70
2022-10-31T01:31:37.318Z,11.10
2022-10-31T01:34:22.600Z,10.00
2022-10-31T01:37:27.446Z,11.40
2022-10-31T01:40:15.890Z,11.90
2022-10-31T01:43:00.997Z,11.40
2022-10-31T01:45:49.619Z,10.70
2022-10-31T01:48:38.779Z,10.40
2022-10-31T01:51:19.823Z,11.50
2022-10-31T01:54:05.269Z,11.70
2022-10-31T01:56:56.784Z,11.90
2022-10-31T01:59:50.121Z,11.70
2022-10-31T02:02:50.460Z,11.20
2022-10-31T02:06:00.234Z,12.70
2022-10-31T02:08:39.180Z,12.80
2022-10-31T02:11:37.669Z,13.00
2022-10-31T02:14:17.459Z,12.80
2022-10-31T02:16:50.018Z,13.10
2022-10-31T02:19:36.799Z,12.90
2022-10-31T02:22:15.212Z,13.80
2022-10-31T02:25:23.766Z,15.50
2022-10-31T02:28:10.253Z,14.20
2022-10-31T02:30:58.449Z,14.20
2022-10-31T02:33:59.815Z,14.80
2022-10-31T02:37:33.819Z,15.30
2022-10-31T02:40:54.368Z,14.90
2022-10-31T02:44:06.010Z,15.10
2022-10-31T02:47:18.862Z,14.30
2022-10-31T02:50:05.288Z,14.80
2022-10-31T02:52:59.237Z,15.30
2022-10-31T02:55:53.333Z,15.20
2022-10-31T02:58:39.064Z,15.70
2022-10-31T03:01:16.507Z,14.90
2022-10-31T03:04:00.944Z,15.30
2022-10-31T03:07:04.748Z,14.70
2022-10-31T03:10:19.520Z,15.50
2022-10-31T03:13:12.976Z,14.50
2022-10-31T03:16:07.991Z,15.10
2022-10-31T03:19:06.413Z,15.70
2022-10-31T03:22:08.729Z,16.90
2022-10-31T03:25:00.320Z,17.00
2022-10-31T03:27:40.303Z,15.60
2022-10-31T03:30:19.320Z,16.50
2022-10-31T03:32:59.699Z,17.30
2022-10-31T03:35:56.966Z,17.90
2022-10-31T03:38:40.086Z,17.90
2022-10-31T03:41:29.110Z,16.10
2022-10-31T03:44:12.175Z,17.90
2022-10-31T03:46:52.071Z,18.40
2022-10-31T03:49:38.542Z,18.40
2022-10-31T03:52:55.346Z,18.40
2022-10-31T03:55:38.261Z,18.90
2022-10-31T03:59:00.011Z,17.30
2022-10-31T04:01:53.886Z,18.30
2022-10-31T04:04:28.819Z,18.10
2022-10-31T04:07:37.563Z,18.70
2022-10-31T04:10:28.640Z,18.00
2022-10-31T04:13:26.123Z,17.70
2022-10-31T04:16:14.212Z,18.40
2022-10-31T04:18:56.845Z,18.50
2022-10-31T04:22:00.721Z,18.80
2022-10-31T04:25:06.198Z,18.60
2022-10-31T04:28:00.636Z,18.00
2022-10-31T04:30:32.676Z,19.20
2022-10-31T04:33:12.651Z,19.00
2022-10-31T04:35:49.161Z,20.40
2022-10-31T04:38:21.488Z,19.10
2022-10-31T04:41:02.110Z,19.00
2022-10-31T04:43:35.730Z,19.20
2022-10-31T04:46:12.110Z,20.30
2022-10-31T04:49:23.186Z,19.80
2022-10-31T04:51:57.490Z,18.90
2022-10-31T04:54:28.744Z,18.90
2022-10-31T04:57:20.956Z,19.30
2022-10-31T05:00:12.392Z,19.70
2022-10-31T05:02:50.986Z,19.60
2022-10-31T05:05:35.754Z,18.70
2022-10-31T05:08:40.913Z,17.90
2022-10-31T05:11:15.421Z,18.90
2022-10-31T05:14:01.622Z,20.20
2022-10-31T05:16:35.633Z,20.30
2022-10-31T05:19:12.719Z,19.70
2022-10-31T05:21:43.701Z,19.00
2022-10-31T05:24:22.999Z,19.70
2022-10-31T05:27:09.495Z,20.50
2022-10-31T05:29:52.517Z,20.50
2022-10-31T05:32:40.504Z,19.70
2022-10-31T05:35:33.672Z,18.90
2022-10-31T05:38:37.154Z,19.80
2022-10-31T05:41:12.532Z,19.80
2022-10-31T05:43:55.158Z,20.90
2022-10-31T05:49:18.923Z,17.80
2022-10-31T05:52:08.445Z,20.60
2022-10-31T05:54:42.806Z,19.90
2022-10-31T05:57:20.982Z,20.80
2022-10-31T06:00:00.814Z,19.40
2022-10-31T06:02:57.157Z,18.30
2022-10-31T06:05:40.531Z,18.70
2022-10-31T06:08:29.096Z,20.20
2022-10-31T06:11:16.424Z,20.10
2022-10-31T06:14:52.577Z,19.90
2022-10-31T06:17:42.123Z,20.60
2022-10-31T06:20:44.613Z,23.00
2022-10-31T06:23:24.897Z,25.30
2022-10-31T06:26:05.551Z,25.90
2022-10-31T06:29:04.289Z,26.30
2022-10-31T06:31:38.610Z,23.40
2022-10-31T06:34:47.995Z,24.10
2022-10-31T06:37:19.957Z,24.30
2022-10-31T06:39:58.156Z,22.80
2022-10-31T06:42:28.827Z,22.90
2022-10-31T06:45:19.200Z,22.90
2022-10-31T06:51:12.052Z,25.00
2022-10-31T06:53:55.303Z,22.50
2022-10-31T06:57:00.567Z,20.20
2022-10-31T06:59:32.761Z,22.70
2022-10-31T07:02:27.498Z,21.00
2022-10-31T07:05:17.565Z,16.10
2022-10-31T07:08:07.854Z,15.50
2022-10-31T07:10:53.868Z,17.50
2022-10-31T07:13:34.237Z,17.30
2022-10-31T07:18:53.487Z,17.00
2022-10-31T07:21:22.953Z,16.00
2022-10-31T07:23:58.956Z,16.80
2022-10-31T07:26:47.979Z,16.10
2022-10-31T07:29:31.032Z,16.30
2022-10-31T07:32:23.851Z,15.30
2022-10-31T07:35:06.986Z,14.50
2022-10-31T07:37:52.059Z,14.00
2022-10-31T07:40:27.950Z,15.60
2022-10-31T07:43:08.895Z,15.20
2022-10-31T07:46:15.707Z,15.30
2022-10-31T07:49:01.638Z,15.00
2022-10-31T07:51:54.453Z,13.00
2022-10-31T07:54:42.604Z,15.60
2022-10-31T07:57:34.450Z,15.90
2022-10-31T08:00:13.335Z,18.50
2022-10-31T08:03:08.296Z,17.70
2022-10-31T08:05:41.301Z,17.10
2022-10-31T08:08:38.419Z,18.80
2022-10-31T08:11:21.144Z,19.60
2022-10-31T08:13:50.180Z,17.80
2022-10-31T08:16:28.801Z,17.50
2022-10-31T08:19:00.036Z,17.10
2022-10-31T08:21:38.351Z,17.80
2022-10-31T08:24:07.772Z,19.10
2022-10-31T08:26:51.234Z,19.40
2022-10-31T08:29:40.227Z,17.30
2022-10-31T08:32:16.386Z,15.70
2022-10-31T08:34:59.466Z,16.80
2022-10-31T08:37:30.980Z,17.30
2022-10-31T08:40:12.569Z,17.30
2022-10-31T08:42:50.047Z,15.40
2022-10-31T08:45:45.503Z,16.10
2022-10-31T08:48:26.282Z,17.10
2022-10-31T08:53:42.144Z,17.60
2022-10-31T08:56:23.622Z,15.50
2022-10-31T08:58:57.964Z,16.50
2022-10-31T09:01:53.441Z,16.20
2022-10-31T09:04:32.527Z,15.90
2022-10-31T09:07:20.210Z,16.00
2022-10-31T09:09:57.938Z,16.40
2022-10-31T09:12:33.160Z,16.10
2022-10-31T09:15:05.139Z,15.90
2022-10-31T09:17:33.826Z,18.60
2022-10-31T09:20:02.259Z,19.10
2022-10-31T09:22:30.800Z,16.00
2022-10-31T09:25:04.354Z,17.60
2022-10-31T09:27:59.971Z,18.00
2022-10-31T09:30:47.000Z,18.50
2022-10-31T09:33:20.591Z,20.10
2022-10-31T09:36:00.739Z,18.50
2022-10-31T09:38:29.209Z,17.90
2022-10-31T09:41:15.346Z,18.80
2022-10-31T09:44:10.286Z,20.00
2022-10-31T09:46:47.469Z,20.40
2022-10-31T09:49:37.034Z,21.50
2022-10-31T09:52:35.687Z,20.50
2022-10-31T09:55:45.886Z,20.00
2022-10-31T09:58:22.893Z,21.40
2022-10-31T10:00:53.855Z,19.90
2022-10-31T10:03:41.381Z,20.80
2022-10-31T10:06:35.140Z,19.40
2022-10-31T10:09:04.648Z,17.30
2022-10-31T10:11:43.010Z,18.80
2022-10-31T10:14:21.275Z,18.00
2022-10-31T10:17:16.076Z,18.20
2022-10-31T10:19:57.146Z,15.40
2022-10-31T10:22:41.207Z,16.60
2022-10-31T10:25:21.565Z,17.30
2022-10-31T10:28:25.616Z,18.10
2022-10-31T10:31:36.972Z,17.10
2022-10-31T10:34:36.320Z,15.90
2022-10-31T10:37:21.934Z,15.60
2022-10-31T10:40:22.883Z,15.50
2022-10-31T10:44:21.423Z,15.60
2022-10-31T10:47:19.412Z,15.20
2022-10-31T10:50:52.842Z,15.30
2022-10-31T10:54:07.854Z,15.90
2022-10-31T10:57:05.959Z,14.50
2022-10-31T10:59:40.298Z,14.00
2022-10-31T11:02:33.659Z,14.10
2022-10-31T11:05:28.628Z,14.10
2022-10-31T11:08:30.808Z,13.80
2022-10-31T11:11:27.770Z,16.10
2022-10-31T11:14:24.103Z,15.80
2022-10-31T11:17:31.311Z,16.40
2022-10-31T11:20:57.358Z,15.40
2022-10-31T11:23:31.103Z,15.70
2022-10-31T11:26:07.824Z,15.10
2022-10-31T11:28:41.213Z,16.60
2022-10-31T11:31:51.822Z,16.20
2022-10-31T11:35:30.617Z,15.70
2022-10-31T11:38:11.830Z,15.80
2022-10-31T11:44:18.230Z,14.00
2022-10-31T11:47:15.795Z,15.40
2022-10-31T11:50:08.736Z,14.40
2022-10-31T11:52:49.759Z,14.90
2022-10-31T11:55:44.867Z,15.60
2022-10-31T11:58:26.843Z,15.50
2022-10-31T12:01:28.576Z,14.80
2022-10-31T12:04:25.333Z,15.60
2022-10-31T12:07:21.147Z,14.50
2022-10-31T12:10:15.867Z,14.40
2022-10-31T12:13:23.157Z,15.60
2022-10-31T12:16:21.820Z,15.10
2022-10-31T12:19:22.248Z,16.00
2022-10-31T12:22:06.909Z,15.50
2022-10-31T12:25:05.290Z,14.10
2022-10-31T12:27:57.771Z,15.50
2022-10-31T12:31:49.551Z,15.40
2022-10-31T12:35:17.473Z,14.60
2022-10-31T12:38:45.698Z,14.40
2022-10-31T12:41:34.620Z,14.20
2022-10-31T12:48:03.131Z,14.60
2022-10-31T12:51:00.960Z,14.60
2022-10-31T12:53:42.617Z,13.50
2022-10-31T12:56:43.408Z,13.40
2022-10-31T12:59:32.061Z,14.60
2022-10-31T13:02:35.026Z,15.60
2022-10-31T13:05:51.334Z,15.40
2022-10-31T13:08:54.646Z,15.30
2022-10-31T13:11:37.415Z,13.60
2022-10-31T13:14:29.212Z,15.20
2022-10-31T13:17:01.218Z,16.20
2022-10-31T13:19:43.866Z,16.70
2022-10-31T13:22:41.081Z,18.90
2022-10-31T13:25:24.666Z,18.60
2022-10-31T13:28:28.551Z,19.50
2022-10-31T13:31:06.797Z,19.30
2022-10-31T13:34:14.882Z,20.20
2022-10-31T13:37:02.566Z,19.70
2022-10-31T13:40:01.685Z,19.90
2022-10-31T13:42:55.893Z,20.80
2022-10-31T13:45:32.016Z,18.80
2022-10-31T13:48:29.421Z,18.70
2022-10-31T13:51:06.010Z,21.10
2022-10-31T13:53:44.566Z,19.70
2022-10-31T13:56:24.149Z,21.20
2022-10-31T13:59:21.729Z,19.80
2022-10-31T14:02:18.869Z,19.80
2022-10-31T14:05:18.053Z,19.90
2022-10-31T14:08:00.138Z,20.10
2022-10-31T14:10:55.227Z,19.90
2022-10-31T14:13:36.684Z,19.20
2022-10-31T14:16:20.707Z,19.40
2022-10-31T14:19:06.023Z,20.00
2022-10-31T14:22:15.206Z,19.80
2022-10-31T14:24:53.836Z,19.90
2022-10-31T14:27:44.967Z,17.30
2022-10-31T14:30:35.134Z,17.70
2022-10-31T14:33:21.014Z,18.30
2022-10-31T14:36:05.258Z,18.20
2022-10-31T14:38:59.455Z,18.20
2022-10-31T14:42:28.375Z,19.00
2022-10-31T14:45:23.491Z,17.90
2022-10-31T14:48:25.985Z,19.90
2022-10-31T14:51:10.596Z,20.40
2022-10-31T14:53:57.293Z,19.00
2022-10-31T14:56:45.229Z,18.10
2022-10-31T15:00:03.805Z,20.50
2022-10-31T15:02:49.322Z,20.80
2022-10-31T15:05:26.301Z,20.90
2022-10-31T15:08:02.562Z,20.80
2022-10-31T15:10:53.741Z,19.00
2022-10-31T15:16:25.724Z,20.20
2022-10-31T15:19:14.288Z,20.40
2022-10-31T15:21:58.566Z,21.30
2022-10-31T15:24:47.586Z,21.60
2022-10-31T15:27:42.199Z,19.60
2022-10-31T15:31:04.840Z,20.40
2022-10-31T15:33:59.057Z,21.90
2022-10-31T15:36:43.612Z,23.10
2022-10-31T15:39:32.656Z,24.40
2022-10-31T15:42:31.467Z,23.10
2022-10-31T15:48:38.953Z,22.20
2022-10-31T15:51:43.574Z,21.50
2022-10-31T15:54:31.045Z,22.50
2022-10-31T15:57:25.736Z,24.50
2022-10-31T16:00:54.476Z,23.00
2022-10-31T16:03:39.609Z,23.50
2022-10-31T16:06:30.006Z,23.30
2022-10-31T16:09:46.086Z,23.20
2022-10-31T16:12:47.038Z,23.20
2022-10-31T16:15:24.757Z,21.60
2022-10-31T16:18:12.523Z,22.60
2022-10-31T16:21:04.998Z,23.90
2022-10-31T16:23:56.515Z,22.90
2022-10-31T16:27:00.364Z,23.10
2022-10-31T16:29:56.367Z,23.10
2022-10-31T16:32:38.362Z,22.80
2022-10-31T16:35:11.905Z,23.10
2022-10-31T16:37:42.242Z,21.70
2022-10-31T16:43:00.768Z,24.20
2022-10-31T16:45:45.292Z,22.30
2022-10-31T16:48:25.978Z,22.40
2022-10-31T16:51:23.123Z,23.40
2022-10-31T16:53:55.681Z,24.50
2022-10-31T16:59:55.501Z,22.60
2022-10-31T17:02:33.074Z,23.50
2022-10-31T17:05:17.498Z,22.70
2022-10-31T17:07:47.716Z,22.40
2022-10-31T17:10:35.194Z,22.20
2022-10-31T17:13:18.375Z,26.20
2022-10-31T17:15:51.972Z,24.30
2022-10-31T17:18:27.158Z,24.60
2022-10-31T17:21:25.744Z,24.50
2022-10-31T17:24:01.082Z,24.70
2022-10-31T17:26:30.588Z,24.90
2022-10-31T17:29:02.275Z,23.50
2022-10-31T17:31:53.513Z,25.20
2022-10-31T17:34:36.989Z,22.80
2022-10-31T17:37:21.733Z,24.20
2022-10-31T17:39:58.227Z,25.10
2022-10-31T17:42:30.604Z,27.00
2022-10-31T17:45:04.339Z,24.50
2022-10-31T17:47:36.419Z,25.50
2022-10-31T17:50:06.267Z,22.80
2022-10-31T17:52:39.170Z,24.40
2022-10-31T17:55:13.096Z,25.30
2022-10-31T17:57:45.993Z,24.10
2022-10-31T18:00:38.035Z,24.00
2022-10-31T18:03:09.853Z,22.10
2022-10-31T18:05:43.389Z,24.90
2022-10-31T18:08:12.808Z,26.10
2022-10-31T18:11:01.016Z,24.60
2022-10-31T18:13:35.176Z,25.00
2022-10-31T18:16:20.203Z,23.80
2022-10-31T18:19:57.115Z,23.90
2022-10-31T18:22:30.517Z,23.60
2022-10-31T18:25:04.556Z,24.00
2022-10-31T18:27:48.109Z,23.00
2022-10-31T18:30:20.846Z,23.70
2022-10-31T18:32:58.888Z,23.70
2022-10-31T18:35:42.394Z,23.90
2022-10-31T18:38:22.953Z,22.60
2022-10-31T18:40:54.378Z,22.30
2022-10-31T18:43:37.428Z,22.70
2022-10-31T18:46:14.429Z,24.80
2022-10-31T18:48:48.664Z,24.20
2022-10-31T18:51:21.962Z,23.40
2022-10-31T18:53:58.383Z,23.30
2022-10-31T18:56:32.744Z,23.70
2022-10-31T18:59:07.754Z,22.70
2022-10-31T19:01:37.415Z,25.80
2022-10-31T19:04:11.384Z,26.00
2022-10-31T19:06:41.991Z,20.90
2022-10-31T19:09:41.835Z,22.00
2022-10-31T19:12:12.971Z,23.80
2022-10-31T19:15:00.233Z,21.50
2022-10-31T19:17:51.326Z,21.60
2022-10-31T19:20:21.592Z,19.90
2022-10-31T19:22:51.630Z,20.00
2022-10-31T19:28:02.103Z,21.00
2022-10-31T19:30:36.680Z,20.20
2022-10-31T19:33:19.162Z,20.00
2022-10-31T19:35:59.340Z,19.40
2022-10-31T19:38:37.521Z,22.00
2022-10-31T19:41:42.326Z,19.00
2022-10-31T19:44:23.486Z,19.20
2022-10-31T19:46:56.479Z,21.50
2022-10-31T19:49:28.168Z,20.10
2022-10-31T19:52:10.275Z,18.50
2022-10-31T19:54:55.447Z,20.20
2022-10-31T19:58:00.779Z,18.20
2022-10-31T20:00:31.277Z,18.50
2022-10-31T20:03:15.173Z,19.60
2022-10-31T20:06:07.095Z,20.70
2022-10-31T20:08:59.198Z,28.10
2022-10-31T20:11:43.543Z,26.60
2022-10-31T20:14:24.922Z,21.60
2022-10-31T20:16:59.514Z,20.60
2022-10-31T20:19:35.424Z,22.90
2022-10-31T20:22:15.213Z,22.50
2022-10-31T20:24:47.249Z,22.10
2022-10-31T20:27:17.400Z,19.50
2022-10-31T20:29:54.019Z,20.10
2022-10-31T20:32:49.803Z,20.80
2022-10-31T20:35:26.346Z,20.10
2022-10-31T20:37:58.747Z,22.40
2022-10-31T20:40:28.248Z,20.60
2022-10-31T20:43:00.118Z,19.70
2022-10-31T20:45:33.977Z,19.40
2022-10-31T20:48:12.241Z,21.30
2022-10-31T20:50:47.657Z,20.30
2022-10-31T20:53:37.686Z,19.10
2022-10-31T20:56:16.325Z,19.80
2022-10-31T20:58:49.420Z,19.80
2022-10-31T21:01:25.135Z,21.40
2022-10-31T21:04:10.831Z,18.90
2022-10-31T21:06:49.885Z,21.20
2022-10-31T21:09:21.272Z,20.10
2022-10-31T21:11:50.933Z,21.10
2022-10-31T21:14:28.111Z,22.80
2022-10-31T21:17:09.621Z,20.20
2022-10-31T21:20:03.262Z,20.90
2022-10-31T21:22:36.178Z,21.60
2022-10-31T21:25:15.155Z,22.60
2022-10-31T21:27:58.235Z,21.20
2022-10-31T21:30:28.953Z,21.70
2022-10-31T21:33:05.901Z,19.50
2022-10-31T21:35:45.265Z,20.00
2022-10-31T21:38:35.714Z,20.30
2022-10-31T21:41:09.967Z,21.80
2022-10-31T21:43:41.014Z,20.30
2022-10-31T21:46:17.682Z,21.00
2022-10-31T21:48:52.905Z,23.60
2022-10-31T21:51:34.506Z,24.40
2022-10-31T21:54:26.236Z,23.60
2022-10-31T21:56:56.965Z,22.50
2022-10-31T21:59:48.843Z,20.80
2022-10-31T22:02:24.321Z,21.70
2022-10-31T22:05:05.758Z,22.70
2022-10-31T22:07:44.435Z,21.40
2022-10-31T22:10:16.860Z,19.50
2022-10-31T22:13:06.946Z,21.40
2022-10-31T22:15:40.958Z,20.80
2022-10-31T22:18:30.697Z,19.50
2022-10-31T22:21:11.555Z,21.60
2022-10-31T22:23:41.436Z,20.20
2022-10-31T22:26:26.322Z,19.50
2022-10-31T22:28:59.988Z,18.10
2022-10-31T22:31:40.680Z,19.60
2022-10-31T22:36:40.686Z,20.30
2022-10-31T22:39:13.431Z,19.00
2022-10-31T22:41:43.175Z,18.10
2022-10-31T22:44:15.672Z,17.10
2022-10-31T22:46:45.060Z,17.70
2022-10-31T22:49:24.707Z,18.10
2022-10-31T22:52:00.288Z,18.40
2022-10-31T22:54:38.060Z,18.40
2022-10-31T22:57:07.138Z,17.90
2022-10-31T22:59:38.964Z,17.40
2022-10-31T23:02:08.619Z,18.50
2022-10-31T23:04:40.592Z,18.40
2022-10-31T23:07:12.394Z,17.90
2022-10-31T23:09:43.455Z,17.10
2022-10-31T23:12:31.176Z,18.10
2022-10-31T23:15:06.591Z,19.20
2022-10-31T23:17:35.851Z,18.50
2022-10-31T23:20:07.522Z,18.10
2022-10-31T23:22:36.878Z,16.40
2022-10-31T23:25:06.715Z,15.90
2022-10-31T23:27:45.038Z,16.90
2022-10-31T23:30:18.830Z,17.00
2022-10-31T23:32:49.614Z,16.50
2022-10-31T23:35:21.577Z,16.00
2022-10-31T23:37:50.412Z,16.40
2022-10-31T23:40:26.961Z,16.10
2022-10-31T23:42:59.107Z,16.80
2022-10-31T23:45:29.298Z,15.90
2022-10-31T23:48:00.925Z,16.40
2022-10-31T23:50:31.025Z,16.30
2022-10-31T23:53:02.763Z,15.20
2022-10-31T23:55:37.917Z,15.60
2022-10-31T23:58:18.573Z,15.40
